sensor_id;sensor_type;location;lat;lon;timestamp;P1;durP1;ratioP1;P2;durP2;ratioP2
54171;SDS011;40076;52.354;4.970;2024-02-21T00:00:53;21.05;;;4.65;;
54171;SDS011;40076;52.354;4.970;2024-02-21T00:03:18;20.08;;;3.38;;
54171;SDS011;40076;52.354;4.970;2024-02-21T00:05:44;24.20;;;4.18;;
54171;SDS011;40076;52.354;4.970;2024-02-21T00:08:10;18.83;;;3.42;;
54171;SDS011;40076;52.354;4.970;2024-02-21T00:10:35;19.80;;;3.53;;
54171;SDS011;40076;52.354;4.970;2024-02-21T00:13:01;23.70;;;3.15;;
54171;SDS011;40076;52.354;4.970;2024-02-21T00:15:26;22.10;;;3.33;;
54171;SDS011;40076;52.354;4.970;2024-02-21T00:17:52;25.38;;;3.38;;
54171;SDS011;40076;52.354;4.970;2024-02-21T00:20:17;22.67;;;3.13;;
54171;SDS011;40076;52.354;4.970;2024-02-21T00:22:45;22.48;;;3.58;;
54171;SDS011;40076;52.354;4.970;2024-02-21T00:25:11;22.40;;;4.13;;
54171;SDS011;40076;52.354;4.970;2024-02-21T00:27:37;26.52;;;3.90;;
54171;SDS011;40076;52.354;4.970;2024-02-21T00:30:03;19.17;;;4.20;;
54171;SDS011;40076;52.354;4.970;2024-02-21T00:32:28;28.48;;;4.55;;
54171;SDS011;40076;52.354;4.970;2024-02-21T00:34:54;21.67;;;3.28;;
54171;SDS011;40076;52.354;4.970;2024-02-21T00:37:19;22.88;;;3.38;;
54171;SDS011;40076;52.354;4.970;2024-02-21T00:39:45;20.85;;;3.78;;
54171;SDS011;40076;52.354;4.970;2024-02-21T00:42:10;21.90;;;3.08;;
54171;SDS011;40076;52.354;4.970;2024-02-21T00:44:35;26.08;;;3.30;;
54171;SDS011;40076;52.354;4.970;2024-02-21T00:47:01;31.98;;;4.97;;
54171;SDS011;40076;52.354;4.970;2024-02-21T00:49:26;21.05;;;3.20;;
54171;SDS011;40076;52.354;4.970;2024-02-21T00:51:52;20.60;;;2.97;;
54171;SDS011;40076;52.354;4.970;2024-02-21T00:54:17;24.85;;;4.00;;
54171;SDS011;40076;52.354;4.970;2024-02-21T00:56:42;20.65;;;3.65;;
54171;SDS011;40076;52.354;4.970;2024-02-21T00:59:08;24.83;;;3.08;;
54171;SDS011;40076;52.354;4.970;2024-02-21T01:01:36;18.77;;;3.33;;
54171;SDS011;40076;52.354;4.970;2024-02-21T01:04:06;21.73;;;4.32;;
54171;SDS011;40076;52.354;4.970;2024-02-21T01:06:32;25.08;;;4.15;;
54171;SDS011;40076;52.354;4.970;2024-02-21T01:08:57;19.08;;;3.38;;
54171;SDS011;40076;52.354;4.970;2024-02-21T01:11:23;18.58;;;3.08;;
54171;SDS011;40076;52.354;4.970;2024-02-21T01:13:50;24.92;;;4.15;;
54171;SDS011;40076;52.354;4.970;2024-02-21T01:16:15;27.77;;;3.22;;
54171;SDS011;40076;52.354;4.970;2024-02-21T01:18:41;19.02;;;3.38;;
54171;SDS011;40076;52.354;4.970;2024-02-21T01:21:06;26.55;;;3.85;;
54171;SDS011;40076;52.354;4.970;2024-02-21T01:23:33;20.73;;;3.03;;
54171;SDS011;40076;52.354;4.970;2024-02-21T01:25:59;20.30;;;3.97;;
54171;SDS011;40076;52.354;4.970;2024-02-21T01:28:25;22.98;;;3.83;;
54171;SDS011;40076;52.354;4.970;2024-02-21T01:30:52;22.33;;;3.80;;
54171;SDS011;40076;52.354;4.970;2024-02-21T01:33:18;21.40;;;4.00;;
54171;SDS011;40076;52.354;4.970;2024-02-21T01:35:44;32.10;;;4.25;;
54171;SDS011;40076;52.354;4.970;2024-02-21T01:38:09;20.15;;;3.47;;
54171;SDS011;40076;52.354;4.970;2024-02-21T01:40:35;21.30;;;3.53;;
54171;SDS011;40076;52.354;4.970;2024-02-21T01:43:03;19.20;;;3.28;;
54171;SDS011;40076;52.354;4.970;2024-02-21T01:45:29;31.55;;;4.05;;
54171;SDS011;40076;52.354;4.970;2024-02-21T01:47:54;24.13;;;3.97;;
54171;SDS011;40076;52.354;4.970;2024-02-21T01:50:20;22.58;;;3.78;;
54171;SDS011;40076;52.354;4.970;2024-02-21T01:52:47;26.73;;;3.65;;
54171;SDS011;40076;52.354;4.970;2024-02-21T01:55:15;22.42;;;3.63;;
54171;SDS011;40076;52.354;4.970;2024-02-21T01:57:41;26.10;;;3.95;;
54171;SDS011;40076;52.354;4.970;2024-02-21T02:00:11;23.30;;;4.72;;
54171;SDS011;40076;52.354;4.970;2024-02-21T02:02:38;24.13;;;4.05;;
54171;SDS011;40076;52.354;4.970;2024-02-21T02:05:04;22.88;;;3.38;;
54171;SDS011;40076;52.354;4.970;2024-02-21T02:07:31;23.67;;;3.65;;
54171;SDS011;40076;52.354;4.970;2024-02-21T02:09:56;26.38;;;3.60;;
54171;SDS011;40076;52.354;4.970;2024-02-21T02:12:22;34.03;;;5.43;;
54171;SDS011;40076;52.354;4.970;2024-02-21T02:14:57;29.85;;;3.85;;
54171;SDS011;40076;52.354;4.970;2024-02-21T02:17:26;30.00;;;4.10;;
54171;SDS011;40076;52.354;4.970;2024-02-21T02:19:51;22.25;;;3.30;;
54171;SDS011;40076;52.354;4.970;2024-02-21T02:22:19;19.17;;;3.58;;
54171;SDS011;40076;52.354;4.970;2024-02-21T02:24:47;29.10;;;3.90;;
54171;SDS011;40076;52.354;4.970;2024-02-21T02:27:13;26.38;;;3.65;;
54171;SDS011;40076;52.354;4.970;2024-02-21T02:29:38;26.27;;;4.05;;
54171;SDS011;40076;52.354;4.970;2024-02-21T02:32:04;23.05;;;3.28;;
54171;SDS011;40076;52.354;4.970;2024-02-21T02:34:29;18.90;;;3.47;;
54171;SDS011;40076;52.354;4.970;2024-02-21T02:36:57;28.38;;;4.13;;
54171;SDS011;40076;52.354;4.970;2024-02-21T02:39:22;28.35;;;3.90;;
54171;SDS011;40076;52.354;4.970;2024-02-21T02:41:47;31.80;;;4.60;;
54171;SDS011;40076;52.354;4.970;2024-02-21T02:44:13;30.27;;;3.67;;
54171;SDS011;40076;52.354;4.970;2024-02-21T02:46:40;25.77;;;3.78;;
54171;SDS011;40076;52.354;4.970;2024-02-21T02:49:06;28.35;;;4.47;;
54171;SDS011;40076;52.354;4.970;2024-02-21T02:51:31;27.05;;;4.25;;
54171;SDS011;40076;52.354;4.970;2024-02-21T02:53:57;27.67;;;4.40;;
54171;SDS011;40076;52.354;4.970;2024-02-21T02:56:24;27.92;;;4.03;;
54171;SDS011;40076;52.354;4.970;2024-02-21T02:58:50;30.30;;;4.78;;
54171;SDS011;40076;52.354;4.970;2024-02-21T03:01:15;32.05;;;4.43;;
54171;SDS011;40076;52.354;4.970;2024-02-21T03:03:41;24.35;;;3.53;;
54171;SDS011;40076;52.354;4.970;2024-02-21T03:06:06;29.83;;;4.53;;
54171;SDS011;40076;52.354;4.970;2024-02-21T03:08:31;29.85;;;4.40;;
54171;SDS011;40076;52.354;4.970;2024-02-21T03:10:58;25.25;;;3.70;;
54171;SDS011;40076;52.354;4.970;2024-02-21T03:13:24;26.15;;;4.15;;
54171;SDS011;40076;52.354;4.970;2024-02-21T03:15:50;30.70;;;4.97;;
54171;SDS011;40076;52.354;4.970;2024-02-21T03:18:15;27.02;;;4.57;;
54171;SDS011;40076;52.354;4.970;2024-02-21T03:20:44;25.52;;;4.20;;
54171;SDS011;40076;52.354;4.970;2024-02-21T03:23:09;30.85;;;4.80;;
54171;SDS011;40076;52.354;4.970;2024-02-21T03:25:34;22.13;;;3.75;;
54171;SDS011;40076;52.354;4.970;2024-02-21T03:28:00;28.67;;;3.88;;
54171;SDS011;40076;52.354;4.970;2024-02-21T03:30:26;33.83;;;4.10;;
54171;SDS011;40076;52.354;4.970;2024-02-21T03:32:52;25.17;;;3.67;;
54171;SDS011;40076;52.354;4.970;2024-02-21T03:35:17;29.40;;;4.32;;
54171;SDS011;40076;52.354;4.970;2024-02-21T03:37:44;24.80;;;3.88;;
54171;SDS011;40076;52.354;4.970;2024-02-21T03:40:10;21.88;;;3.72;;
54171;SDS011;40076;52.354;4.970;2024-02-21T03:42:37;27.75;;;4.32;;
54171;SDS011;40076;52.354;4.970;2024-02-21T03:45:03;25.35;;;3.75;;
54171;SDS011;40076;52.354;4.970;2024-02-21T03:47:29;30.75;;;4.35;;
54171;SDS011;40076;52.354;4.970;2024-02-21T03:49:56;28.05;;;4.25;;
54171;SDS011;40076;52.354;4.970;2024-02-21T03:52:25;26.35;;;4.18;;
54171;SDS011;40076;52.354;4.970;2024-02-21T03:54:50;30.75;;;4.20;;
54171;SDS011;40076;52.354;4.970;2024-02-21T03:57:16;26.27;;;4.35;;
54171;SDS011;40076;52.354;4.970;2024-02-21T03:59:42;26.05;;;3.83;;
54171;SDS011;40076;52.354;4.970;2024-02-21T04:02:08;31.25;;;4.20;;
54171;SDS011;40076;52.354;4.970;2024-02-21T04:04:34;25.45;;;3.17;;
54171;SDS011;40076;52.354;4.970;2024-02-21T04:07:02;25.77;;;4.05;;
54171;SDS011;40076;52.354;4.970;2024-02-21T04:09:31;27.20;;;3.85;;
54171;SDS011;40076;52.354;4.970;2024-02-21T04:11:57;21.13;;;3.55;;
54171;SDS011;40076;52.354;4.970;2024-02-21T04:14:24;25.40;;;3.60;;
54171;SDS011;40076;52.354;4.970;2024-02-21T04:16:50;24.77;;;4.28;;
54171;SDS011;40076;52.354;4.970;2024-02-21T04:19:15;28.17;;;3.92;;
54171;SDS011;40076;52.354;4.970;2024-02-21T04:21:41;33.55;;;7.22;;
54171;SDS011;40076;52.354;4.970;2024-02-21T04:24:06;29.15;;;4.70;;
54171;SDS011;40076;52.354;4.970;2024-02-21T04:26:31;27.85;;;4.68;;
54171;SDS011;40076;52.354;4.970;2024-02-21T04:28:57;30.98;;;4.63;;
54171;SDS011;40076;52.354;4.970;2024-02-21T04:31:22;23.60;;;4.18;;
54171;SDS011;40076;52.354;4.970;2024-02-21T04:33:48;30.73;;;4.65;;
54171;SDS011;40076;52.354;4.970;2024-02-21T04:36:13;26.90;;;4.78;;
54171;SDS011;40076;52.354;4.970;2024-02-21T04:38:39;19.42;;;3.70;;
54171;SDS011;40076;52.354;4.970;2024-02-21T04:41:05;29.50;;;5.13;;
54171;SDS011;40076;52.354;4.970;2024-02-21T04:43:33;23.60;;;4.53;;
54171;SDS011;40076;52.354;4.970;2024-02-21T04:46:01;30.27;;;5.97;;
54171;SDS011;40076;52.354;4.970;2024-02-21T04:48:26;28.00;;;5.32;;
54171;SDS011;40076;52.354;4.970;2024-02-21T04:50:52;27.75;;;4.82;;
54171;SDS011;40076;52.354;4.970;2024-02-21T04:53:17;27.67;;;5.65;;
54171;SDS011;40076;52.354;4.970;2024-02-21T04:55:44;29.55;;;6.38;;
54171;SDS011;40076;52.354;4.970;2024-02-21T04:58:10;23.55;;;6.45;;
54171;SDS011;40076;52.354;4.970;2024-02-21T05:00:35;18.45;;;5.53;;
54171;SDS011;40076;52.354;4.970;2024-02-21T05:03:01;25.75;;;6.13;;
54171;SDS011;40076;52.354;4.970;2024-02-21T05:05:26;23.30;;;6.38;;
54171;SDS011;40076;52.354;4.970;2024-02-21T05:07:52;27.23;;;6.93;;
54171;SDS011;40076;52.354;4.970;2024-02-21T05:10:17;25.58;;;8.02;;
54171;SDS011;40076;52.354;4.970;2024-02-21T05:12:44;23.33;;;7.97;;
54171;SDS011;40076;52.354;4.970;2024-02-21T05:15:09;28.50;;;7.00;;
54171;SDS011;40076;52.354;4.970;2024-02-21T05:17:35;27.40;;;7.93;;
54171;SDS011;40076;52.354;4.970;2024-02-21T05:20:00;28.48;;;7.70;;
54171;SDS011;40076;52.354;4.970;2024-02-21T05:22:26;26.33;;;7.43;;
54171;SDS011;40076;52.354;4.970;2024-02-21T05:24:51;23.25;;;7.78;;
54171;SDS011;40076;52.354;4.970;2024-02-21T05:27:16;22.15;;;7.75;;
54171;SDS011;40076;52.354;4.970;2024-02-21T05:29:42;25.48;;;7.72;;
54171;SDS011;40076;52.354;4.970;2024-02-21T05:32:07;27.77;;;7.88;;
54171;SDS011;40076;52.354;4.970;2024-02-21T05:34:35;25.85;;;7.40;;
54171;SDS011;40076;52.354;4.970;2024-02-21T05:37:00;22.38;;;7.43;;
54171;SDS011;40076;52.354;4.970;2024-02-21T05:39:26;19.42;;;8.02;;
54171;SDS011;40076;52.354;4.970;2024-02-21T05:41:51;22.63;;;7.95;;
54171;SDS011;40076;52.354;4.970;2024-02-21T05:44:17;23.00;;;7.60;;
54171;SDS011;40076;52.354;4.970;2024-02-21T05:46:43;24.13;;;7.90;;
54171;SDS011;40076;52.354;4.970;2024-02-21T05:49:10;29.45;;;7.57;;
54171;SDS011;40076;52.354;4.970;2024-02-21T05:51:35;18.70;;;7.13;;
54171;SDS011;40076;52.354;4.970;2024-02-21T05:54:03;25.92;;;7.80;;
54171;SDS011;40076;52.354;4.970;2024-02-21T05:56:28;23.08;;;8.77;;
54171;SDS011;40076;52.354;4.970;2024-02-21T05:58:54;25.27;;;9.30;;
54171;SDS011;40076;52.354;4.970;2024-02-21T06:01:19;24.77;;;8.82;;
54171;SDS011;40076;52.354;4.970;2024-02-21T06:03:47;22.60;;;9.98;;
54171;SDS011;40076;52.354;4.970;2024-02-21T06:06:12;21.33;;;10.63;;
54171;SDS011;40076;52.354;4.970;2024-02-21T06:08:39;23.98;;;12.68;;
54171;SDS011;40076;52.354;4.970;2024-02-21T06:11:05;27.48;;;11.30;;
54171;SDS011;40076;52.354;4.970;2024-02-21T06:13:30;23.38;;;12.35;;
54171;SDS011;40076;52.354;4.970;2024-02-21T06:15:56;24.17;;;12.73;;
54171;SDS011;40076;52.354;4.970;2024-02-21T06:18:21;26.50;;;14.15;;
54171;SDS011;40076;52.354;4.970;2024-02-21T06:20:46;19.58;;;13.23;;
54171;SDS011;40076;52.354;4.970;2024-02-21T06:23:12;25.92;;;14.07;;
54171;SDS011;40076;52.354;4.970;2024-02-21T06:25:38;23.83;;;14.15;;
54171;SDS011;40076;52.354;4.970;2024-02-21T06:28:04;27.15;;;14.77;;
54171;SDS011;40076;52.354;4.970;2024-02-21T06:30:30;22.95;;;14.07;;
54171;SDS011;40076;52.354;4.970;2024-02-21T06:32:55;21.67;;;14.07;;
54171;SDS011;40076;52.354;4.970;2024-02-21T06:35:21;29.45;;;15.38;;
54171;SDS011;40076;52.354;4.970;2024-02-21T06:37:46;25.05;;;15.48;;
54171;SDS011;40076;52.354;4.970;2024-02-21T06:40:15;23.02;;;14.95;;
54171;SDS011;40076;52.354;4.970;2024-02-21T06:42:41;28.95;;;16.40;;
54171;SDS011;40076;52.354;4.970;2024-02-21T06:45:06;23.35;;;16.10;;
54171;SDS011;40076;52.354;4.970;2024-02-21T06:47:32;27.63;;;16.33;;
54171;SDS011;40076;52.354;4.970;2024-02-21T06:49:57;30.73;;;16.13;;
54171;SDS011;40076;52.354;4.970;2024-02-21T06:52:22;28.38;;;16.30;;
54171;SDS011;40076;52.354;4.970;2024-02-21T06:54:49;25.33;;;16.75;;
54171;SDS011;40076;52.354;4.970;2024-02-21T06:57:15;22.15;;;14.45;;
54171;SDS011;40076;52.354;4.970;2024-02-21T06:59:41;28.77;;;15.90;;
54171;SDS011;40076;52.354;4.970;2024-02-21T07:02:07;27.98;;;15.13;;
54171;SDS011;40076;52.354;4.970;2024-02-21T07:04:34;27.55;;;16.13;;
54171;SDS011;40076;52.354;4.970;2024-02-21T07:07:00;22.88;;;15.27;;
54171;SDS011;40076;52.354;4.970;2024-02-21T07:09:25;23.08;;;15.88;;
54171;SDS011;40076;52.354;4.970;2024-02-21T07:11:51;26.40;;;16.70;;
54171;SDS011;40076;52.354;4.970;2024-02-21T07:14:17;26.17;;;15.68;;
54171;SDS011;40076;52.354;4.970;2024-02-21T07:16:46;24.40;;;15.85;;
54171;SDS011;40076;52.354;4.970;2024-02-21T07:19:14;25.15;;;16.83;;
54171;SDS011;40076;52.354;4.970;2024-02-21T07:21:39;24.67;;;16.92;;
54171;SDS011;40076;52.354;4.970;2024-02-21T07:24:07;26.42;;;17.92;;
54171;SDS011;40076;52.354;4.970;2024-02-21T07:26:32;27.13;;;17.25;;
54171;SDS011;40076;52.354;4.970;2024-02-21T07:28:58;26.65;;;16.90;;
54171;SDS011;40076;52.354;4.970;2024-02-21T07:31:23;30.95;;;18.95;;
54171;SDS011;40076;52.354;4.970;2024-02-21T07:33:49;28.25;;;17.27;;
54171;SDS011;40076;52.354;4.970;2024-02-21T07:36:15;27.75;;;17.42;;
54171;SDS011;40076;52.354;4.970;2024-02-21T07:38:40;28.33;;;17.50;;
54171;SDS011;40076;52.354;4.970;2024-02-21T07:41:06;30.67;;;17.20;;
54171;SDS011;40076;52.354;4.970;2024-02-21T07:43:32;30.35;;;17.42;;
54171;SDS011;40076;52.354;4.970;2024-02-21T07:45:57;27.80;;;17.05;;
54171;SDS011;40076;52.354;4.970;2024-02-21T07:48:23;24.73;;;16.65;;
54171;SDS011;40076;52.354;4.970;2024-02-21T07:50:50;28.40;;;16.30;;
54171;SDS011;40076;52.354;4.970;2024-02-21T07:53:16;23.80;;;16.40;;
54171;SDS011;40076;52.354;4.970;2024-02-21T07:55:41;26.25;;;16.08;;
54171;SDS011;40076;52.354;4.970;2024-02-21T07:58:06;27.10;;;16.98;;
54171;SDS011;40076;52.354;4.970;2024-02-21T08:00:32;28.10;;;16.10;;
54171;SDS011;40076;52.354;4.970;2024-02-21T08:02:58;29.13;;;15.45;;
54171;SDS011;40076;52.354;4.970;2024-02-21T08:05:25;30.40;;;15.98;;
54171;SDS011;40076;52.354;4.970;2024-02-21T08:07:51;26.45;;;16.25;;
54171;SDS011;40076;52.354;4.970;2024-02-21T08:10:16;28.52;;;15.13;;
54171;SDS011;40076;52.354;4.970;2024-02-21T08:12:42;29.80;;;15.63;;
54171;SDS011;40076;52.354;4.970;2024-02-21T08:15:08;27.42;;;15.63;;
54171;SDS011;40076;52.354;4.970;2024-02-21T08:17:35;30.10;;;15.65;;
54171;SDS011;40076;52.354;4.970;2024-02-21T08:20:01;26.23;;;15.48;;
54171;SDS011;40076;52.354;4.970;2024-02-21T08:22:27;31.27;;;16.25;;
54171;SDS011;40076;52.354;4.970;2024-02-21T08:24:53;24.45;;;15.63;;
54171;SDS011;40076;52.354;4.970;2024-02-21T08:27:18;26.23;;;16.23;;
54171;SDS011;40076;52.354;4.970;2024-02-21T08:29:44;26.35;;;14.73;;
54171;SDS011;40076;52.354;4.970;2024-02-21T08:32:09;27.48;;;14.73;;
54171;SDS011;40076;52.354;4.970;2024-02-21T08:34:55;30.05;;;14.57;;
54171;SDS011;40076;52.354;4.970;2024-02-21T08:37:23;29.00;;;15.48;;
54171;SDS011;40076;52.354;4.970;2024-02-21T08:39:51;32.95;;;15.02;;
54171;SDS011;40076;52.354;4.970;2024-02-21T08:42:21;27.00;;;15.10;;
54171;SDS011;40076;52.354;4.970;2024-02-21T08:45:02;28.95;;;15.45;;
54171;SDS011;40076;52.354;4.970;2024-02-21T08:47:41;23.00;;;14.88;;
54171;SDS011;40076;52.354;4.970;2024-02-21T08:50:14;27.23;;;14.75;;
54171;SDS011;40076;52.354;4.970;2024-02-21T08:52:45;25.70;;;15.00;;
54171;SDS011;40076;52.354;4.970;2024-02-21T08:55:25;30.58;;;16.77;;
54171;SDS011;40076;52.354;4.970;2024-02-21T08:58:11;30.70;;;17.15;;
54171;SDS011;40076;52.354;4.970;2024-02-21T09:00:39;28.40;;;17.10;;
54171;SDS011;40076;52.354;4.970;2024-02-21T09:03:07;29.23;;;16.20;;
54171;SDS011;40076;52.354;4.970;2024-02-21T09:05:46;28.60;;;15.75;;
54171;SDS011;40076;52.354;4.970;2024-02-21T09:08:45;30.13;;;17.60;;
54171;SDS011;40076;52.354;4.970;2024-02-21T09:11:29;30.08;;;16.08;;
54171;SDS011;40076;52.354;4.970;2024-02-21T09:18:27;28.15;;;15.20;;
54171;SDS011;40076;52.354;4.970;2024-02-21T09:21:54;27.77;;;15.52;;
54171;SDS011;40076;52.354;4.970;2024-02-21T09:24:50;25.98;;;15.23;;
54171;SDS011;40076;52.354;4.970;2024-02-21T09:27:53;30.38;;;16.73;;
54171;SDS011;40076;52.354;4.970;2024-02-21T09:34:23;27.55;;;16.77;;
54171;SDS011;40076;52.354;4.970;2024-02-21T09:37:24;26.17;;;16.10;;
54171;SDS011;40076;52.354;4.970;2024-02-21T09:50:40;35.08;;;18.42;;
54171;SDS011;40076;52.354;4.970;2024-02-21T09:53:57;29.88;;;18.05;;
54171;SDS011;40076;52.354;4.970;2024-02-21T09:56:49;30.23;;;18.85;;
54171;SDS011;40076;52.354;4.970;2024-02-21T10:00:03;25.60;;;18.08;;
54171;SDS011;40076;52.354;4.970;2024-02-21T10:06:11;26.90;;;17.40;;
54171;SDS011;40076;52.354;4.970;2024-02-21T10:08:37;27.13;;;16.63;;
54171;SDS011;40076;52.354;4.970;2024-02-21T10:11:05;27.50;;;17.83;;
54171;SDS011;40076;52.354;4.970;2024-02-21T10:13:34;27.60;;;16.77;;
54171;SDS011;40076;52.354;4.970;2024-02-21T10:16:09;25.60;;;16.50;;
54171;SDS011;40076;52.354;4.970;2024-02-21T10:18:35;31.15;;;17.65;;
54171;SDS011;40076;52.354;4.970;2024-02-21T10:21:06;31.48;;;16.70;;
54171;SDS011;40076;52.354;4.970;2024-02-21T10:23:42;26.23;;;16.50;;
54171;SDS011;40076;52.354;4.970;2024-02-21T10:26:12;32.50;;;17.50;;
54171;SDS011;40076;52.354;4.970;2024-02-21T10:28:39;25.63;;;15.73;;
54171;SDS011;40076;52.354;4.970;2024-02-21T10:31:23;27.85;;;15.60;;
54171;SDS011;40076;52.354;4.970;2024-02-21T10:34:00;26.40;;;14.87;;
54171;SDS011;40076;52.354;4.970;2024-02-21T10:36:30;22.48;;;14.60;;
54171;SDS011;40076;52.354;4.970;2024-02-21T10:39:04;24.60;;;14.35;;
54171;SDS011;40076;52.354;4.970;2024-02-21T10:41:34;25.63;;;14.48;;
54171;SDS011;40076;52.354;4.970;2024-02-21T10:44:07;23.50;;;13.63;;
54171;SDS011;40076;52.354;4.970;2024-02-21T10:46:50;24.30;;;13.82;;
54171;SDS011;40076;52.354;4.970;2024-02-21T10:56:35;20.20;;;11.93;;
54171;SDS011;40076;52.354;4.970;2024-02-21T10:59:27;16.38;;;10.77;;
54171;SDS011;40076;52.354;4.970;2024-02-21T11:06:14;15.50;;;10.65;;
54171;SDS011;40076;52.354;4.970;2024-02-21T11:09:00;14.07;;;9.85;;
54171;SDS011;40076;52.354;4.970;2024-02-21T11:11:44;16.55;;;10.20;;
54171;SDS011;40076;52.354;4.970;2024-02-21T11:18:41;18.27;;;11.45;;
54171;SDS011;40076;52.354;4.970;2024-02-21T11:20:56;19.58;;;11.18;;
54171;SDS011;40076;52.354;4.970;2024-02-21T11:23:28;15.00;;;10.95;;
54171;SDS011;40076;52.354;4.970;2024-02-21T11:26:03;16.88;;;11.20;;
54171;SDS011;40076;52.354;4.970;2024-02-21T11:28:55;12.85;;;8.98;;
54171;SDS011;40076;52.354;4.970;2024-02-21T11:31:44;18.67;;;11.48;;
54171;SDS011;40076;52.354;4.970;2024-02-21T11:34:12;19.08;;;12.27;;
54171;SDS011;40076;52.354;4.970;2024-02-21T11:36:49;18.30;;;10.90;;
54171;SDS011;40076;52.354;4.970;2024-02-21T11:39:22;17.25;;;11.70;;
54171;SDS011;40076;52.354;4.970;2024-02-21T11:42:05;15.27;;;10.60;;
54171;SDS011;40076;52.354;4.970;2024-02-21T11:44:37;15.98;;;10.50;;
54171;SDS011;40076;52.354;4.970;2024-02-21T11:47:22;14.13;;;10.68;;
54171;SDS011;40076;52.354;4.970;2024-02-21T11:50:16;14.02;;;10.45;;
54171;SDS011;40076;52.354;4.970;2024-02-21T11:52:55;16.17;;;10.63;;
54171;SDS011;40076;52.354;4.970;2024-02-21T11:55:31;16.42;;;11.32;;
54171;SDS011;40076;52.354;4.970;2024-02-21T11:57:59;13.65;;;10.63;;
54171;SDS011;40076;52.354;4.970;2024-02-21T12:00:35;14.18;;;11.05;;
54171;SDS011;40076;52.354;4.970;2024-02-21T12:03:00;12.38;;;10.25;;
54171;SDS011;40076;52.354;4.970;2024-02-21T12:05:29;15.05;;;10.90;;
54171;SDS011;40076;52.354;4.970;2024-02-21T12:07:57;15.52;;;10.63;;
54171;SDS011;40076;52.354;4.970;2024-02-21T12:10:29;15.18;;;11.93;;
54171;SDS011;40076;52.354;4.970;2024-02-21T12:13:04;14.85;;;11.55;;
54171;SDS011;40076;52.354;4.970;2024-02-21T12:15:39;16.08;;;11.20;;
54171;SDS011;40076;52.354;4.970;2024-02-21T12:18:12;15.98;;;11.82;;
54171;SDS011;40076;52.354;4.970;2024-02-21T12:20:40;16.10;;;11.82;;
54171;SDS011;40076;52.354;4.970;2024-02-21T12:23:18;14.88;;;12.02;;
54171;SDS011;40076;52.354;4.970;2024-02-21T12:25:50;18.65;;;11.73;;
54171;SDS011;40076;52.354;4.970;2024-02-21T12:28:19;13.80;;;11.32;;
54171;SDS011;40076;52.354;4.970;2024-02-21T12:30:44;20.52;;;12.00;;
54171;SDS011;40076;52.354;4.970;2024-02-21T12:33:15;17.20;;;12.00;;
54171;SDS011;40076;52.354;4.970;2024-02-21T12:35:43;15.75;;;11.70;;
54171;SDS011;40076;52.354;4.970;2024-02-21T12:38:08;16.20;;;11.35;;
54171;SDS011;40076;52.354;4.970;2024-02-21T12:40:44;18.40;;;11.13;;
54171;SDS011;40076;52.354;4.970;2024-02-21T12:43:10;16.00;;;10.82;;
54171;SDS011;40076;52.354;4.970;2024-02-21T12:45:35;17.38;;;10.63;;
54171;SDS011;40076;52.354;4.970;2024-02-21T12:48:01;17.05;;;10.63;;
54171;SDS011;40076;52.354;4.970;2024-02-21T12:50:26;12.90;;;10.27;;
54171;SDS011;40076;52.354;4.970;2024-02-21T12:52:52;15.15;;;10.20;;
54171;SDS011;40076;52.354;4.970;2024-02-21T12:55:17;12.57;;;10.23;;
54171;SDS011;40076;52.354;4.970;2024-02-21T12:57:43;14.45;;;9.95;;
54171;SDS011;40076;52.354;4.970;2024-02-21T13:00:09;13.35;;;10.40;;
54171;SDS011;40076;52.354;4.970;2024-02-21T13:02:43;12.32;;;9.07;;
54171;SDS011;40076;52.354;4.970;2024-02-21T13:05:11;12.57;;;8.77;;
54171;SDS011;40076;52.354;4.970;2024-02-21T13:07:37;13.18;;;9.25;;
54171;SDS011;40076;52.354;4.970;2024-02-21T13:10:02;12.45;;;8.70;;
54171;SDS011;40076;52.354;4.970;2024-02-21T13:12:33;11.15;;;8.20;;
54171;SDS011;40076;52.354;4.970;2024-02-21T13:14:59;13.07;;;8.15;;
54171;SDS011;40076;52.354;4.970;2024-02-21T13:17:27;12.10;;;8.65;;
54171;SDS011;40076;52.354;4.970;2024-02-21T13:19:56;14.43;;;9.15;;
54171;SDS011;40076;52.354;4.970;2024-02-21T13:22:24;14.52;;;8.52;;
54171;SDS011;40076;52.354;4.970;2024-02-21T13:24:53;13.75;;;8.38;;
54171;SDS011;40076;52.354;4.970;2024-02-21T13:27:21;15.15;;;9.23;;
54171;SDS011;40076;52.354;4.970;2024-02-21T13:29:51;11.13;;;7.93;;
54171;SDS011;40076;52.354;4.970;2024-02-21T13:32:18;13.63;;;8.80;;
54171;SDS011;40076;52.354;4.970;2024-02-21T13:34:44;11.52;;;8.10;;
54171;SDS011;40076;52.354;4.970;2024-02-21T13:37:12;12.02;;;8.65;;
54171;SDS011;40076;52.354;4.970;2024-02-21T13:39:41;11.23;;;7.85;;
54171;SDS011;40076;52.354;4.970;2024-02-21T13:42:07;12.50;;;8.07;;
54171;SDS011;40076;52.354;4.970;2024-02-21T13:44:32;13.50;;;7.88;;
54171;SDS011;40076;52.354;4.970;2024-02-21T13:46:58;13.63;;;7.85;;
54171;SDS011;40076;52.354;4.970;2024-02-21T13:49:23;16.15;;;7.28;;
54171;SDS011;40076;52.354;4.970;2024-02-21T13:51:51;11.43;;;7.00;;
54171;SDS011;40076;52.354;4.970;2024-02-21T13:54:16;12.63;;;6.72;;
54171;SDS011;40076;52.354;4.970;2024-02-21T13:56:44;12.52;;;6.72;;
54171;SDS011;40076;52.354;4.970;2024-02-21T13:59:11;13.52;;;6.97;;
54171;SDS011;40076;52.354;4.970;2024-02-21T14:01:41;13.23;;;7.00;;
54171;SDS011;40076;52.354;4.970;2024-02-21T14:04:07;13.55;;;6.43;;
54171;SDS011;40076;52.354;4.970;2024-02-21T14:06:33;15.13;;;7.05;;
54171;SDS011;40076;52.354;4.970;2024-02-21T14:08:59;12.75;;;6.35;;
54171;SDS011;40076;52.354;4.970;2024-02-21T14:11:24;17.83;;;6.20;;
54171;SDS011;40076;52.354;4.970;2024-02-21T14:13:55;15.05;;;6.55;;
54171;SDS011;40076;52.354;4.970;2024-02-21T14:16:22;15.40;;;6.78;;
54171;SDS011;40076;52.354;4.970;2024-02-21T14:18:48;13.05;;;6.13;;
54171;SDS011;40076;52.354;4.970;2024-02-21T14:21:13;12.05;;;6.47;;
54171;SDS011;40076;52.354;4.970;2024-02-21T14:23:39;11.18;;;6.05;;
54171;SDS011;40076;52.354;4.970;2024-02-21T14:26:08;10.70;;;5.50;;
54171;SDS011;40076;52.354;4.970;2024-02-21T14:28:33;11.48;;;6.07;;
54171;SDS011;40076;52.354;4.970;2024-02-21T14:30:59;13.32;;;6.00;;
54171;SDS011;40076;52.354;4.970;2024-02-21T14:33:28;10.20;;;5.85;;
54171;SDS011;40076;52.354;4.970;2024-02-21T14:35:55;11.40;;;6.88;;
54171;SDS011;40076;52.354;4.970;2024-02-21T14:38:21;12.23;;;7.07;;
54171;SDS011;40076;52.354;4.970;2024-02-21T14:40:47;12.20;;;8.10;;
54171;SDS011;40076;52.354;4.970;2024-02-21T14:43:12;14.90;;;9.23;;
54171;SDS011;40076;52.354;4.970;2024-02-21T14:45:38;15.57;;;8.93;;
54171;SDS011;40076;52.354;4.970;2024-02-21T14:48:07;15.23;;;9.63;;
54171;SDS011;40076;52.354;4.970;2024-02-21T14:50:33;13.57;;;9.43;;
54171;SDS011;40076;52.354;4.970;2024-02-21T14:52:58;14.95;;;8.98;;
54171;SDS011;40076;52.354;4.970;2024-02-21T14:55:26;15.95;;;9.27;;
54171;SDS011;40076;52.354;4.970;2024-02-21T14:57:54;17.25;;;9.75;;
54171;SDS011;40076;52.354;4.970;2024-02-21T15:00:19;17.35;;;9.23;;
54171;SDS011;40076;52.354;4.970;2024-02-21T15:02:46;16.13;;;9.80;;
54171;SDS011;40076;52.354;4.970;2024-02-21T15:05:12;15.40;;;9.82;;
54171;SDS011;40076;52.354;4.970;2024-02-21T15:07:39;15.68;;;9.95;;
54171;SDS011;40076;52.354;4.970;2024-02-21T15:10:04;17.83;;;9.68;;
54171;SDS011;40076;52.354;4.970;2024-02-21T15:12:31;13.20;;;8.93;;
54171;SDS011;40076;52.354;4.970;2024-02-21T15:14:56;20.23;;;9.88;;